Main page
METAR-TAF:

METAR-TAF

Airports :

Naples Municipal Airport

Naples, Florida, United States

latitude: 26-09N, longitude: 081-46W, elevation: 7 ft

Current weather observation

The report was made 52 minutes ago, at 03:53 UTC
Wind 8 mph from the East
Temperature 77°F
Humidity 83%
Pressure 29.97 in. Hg
Visibility: 10 miles
Clear sky

METAR: KAPF 240353Z AUTO 09007KT 10SM CLR 25/22 A2997 RMK AO2 SLP147 T02500217

Time: 00:45 (04:45 UTC)

Forecast

The report was made 1 hour and 26 minutes ago, at 03:19 UTC
Forecast valid from 24 at 03 UTC to 24 at 24 UTC
Wind 12 mph from the East
Visibility: 6 miles
Scattered clouds at a height of 3000 ft
Broken clouds at a height of 25000 ft
From 24 at 1700 UTC
Wind 14 mph from the Southeast
Visibility: 6 miles
Scattered clouds at a height of 3000 ft
Broken clouds at a height of 5000 ft
showers in vicinity

TAF: KAPF 240319Z 2403/2424 09010KT P6SM SCT030 BKN250 FM241700 13012KT P6SM VCSH SCT030 BKN050

Weather observations and forecasts of more than 4000 airports (METAR and TAF reports).

The available stations are represented by yellow and red dots on the map.

Hover mouse over dot to see the name of the station.

Then click to see weather observations and forecasts.

To change the map : click on the green buttons with a black cross to zoom in, on the green button with a dash to zoom out, or on the green arrows for adjacent maps.


METAR-TAF: